Time;durP1;ratioP1;P1;durP2;ratioP2;P2;SDS_P1;SDS_P2;PMS_P1;PMS_P2;Temp;Humidity;BMP_temperature;BMP_pressure;BME280_temperature;BME280_humidity;BME280_pressure;Samples;Min_cycle;Max_cycle;Signal;HPM_P1;HPM_P2
2021/12/16 14:01:36;;;;;;;;;;;;;;;13.20;71.84;103550.03;5068561;28;28231;-79
2021/12/16 14:04:37;;;;;;;;;;;;;;;13.21;71.79;103556.97;5068412;27;27332;-80
2021/12/16 14:07:26;;;;;;;;;;;;;;;13.22;71.54;103558.72;5070937;27;27371;-80
2021/12/16 14:10:05;;;;;;;;;;;;;;;13.23;71.61;103562.19;5070624;28;27273;-78
2021/12/16 14:17:54;;;;;;;;;;;;;;;13.21;71.58;103546.59;5048121;28;26970;-80
2021/12/16 14:23:25;;;;;;;;;;;;;;;13.18;71.59;103551.75;5039897;28;27398;-81
2021/12/16 14:39:39;;;;;;;;;;;;;;;12.98;71.40;103553.28;5065634;27;27189;-80
2021/12/16 14:47:11;;;;;;;;;;;;;;;12.71;71.96;103547.84;5069529;27;27148;-79
2021/12/16 14:49:41;;;;;;;;;;;;;;;12.70;71.38;103561.66;5070151;27;26974;-80
2021/12/16 14:52:16;;;;;;;;;;;;;;;12.65;71.40;103553.81;5071862;27;28092;-79
2021/12/16 14:54:55;;;;;;;;;;;;;;;12.60;71.73;103560.66;5068299;27;27015;-79
2021/12/16 14:57:36;;;;;;;;;;;;;;;12.51;72.03;103566.63;5070629;27;27989;-80
2021/12/16 15:00:10;;;;;;;;;;;;;;;12.44;72.34;103570.03;5073028;27;27053;-80
2021/12/16 15:02:38;;;;;;;;;;;;;;;12.38;71.80;103569.94;5076226;27;27687;-80
2021/12/16 15:05:19;;;;;;;;;;;;;;;12.33;72.51;103565.56;5077222;27;27037;-80
2021/12/16 15:07:50;;;;;;;;;;;;;;;12.30;72.56;103583.63;5073832;27;27727;-80
2021/12/16 15:10:16;;;;;;;;;;;;;;;12.29;72.18;103582.78;5074526;27;27197;-81
2021/12/16 15:12:51;;;;;;;;;;;;;;;12.25;72.36;103578.41;5076782;27;27115;-80
2021/12/16 15:15:27;;;;;;;;;;;;;;;12.23;72.17;103590.47;5077789;28;27170;-81
2021/12/16 15:35:45;;;;;;;;;;;;;;;12.04;72.83;103604.03;5087746;27;26876;-79
2021/12/16 15:39:47;;;;;;;;;;;;;;;12.04;72.87;103609.19;5092539;27;27044;-79
2021/12/16 15:44:58;;;;;;;;;;;;;;;12.07;72.23;103623.06;5094419;28;27048;-79
2021/12/16 15:47:24;;;;;;;;;;;;;;;12.10;72.19;103630.03;5098301;27;26839;-79
2021/12/16 15:49:50;;;;;;;;;;;;;;;12.09;72.77;103628.28;5095556;27;27122;-79
2021/12/16 15:52:16;;;;;;;;;;;;;;;12.04;72.16;103624.75;5096489;27;27148;-79
2021/12/16 15:54:47;;;;;;;;;;;;;;;12.01;72.32;103629.88;5096399;27;27138;-78
2021/12/16 15:57:13;;;;;;;;;;;;;;;11.98;72.39;103624.66;5096956;27;27167;-79
2021/12/16 15:59:44;;;;;;;;;;;;;;;11.96;72.43;103621.19;5096140;27;26915;-78
2021/12/16 16:02:09;;;;;;;;;;;;;;;11.95;72.47;103629.81;5095978;27;26833;-78
2021/12/16 16:04:35;;;;;;;;;;;;;;;11.92;72.63;103629.78;5095551;27;27662;-78
2021/12/16 16:07:03;;;;;;;;;;;;;;;11.88;72.30;103633.16;5092234;28;26901;-79
2021/12/16 16:09:34;;;;;;;;;;;;;;;11.87;72.41;103641.78;5091653;27;27100;-78
2021/12/16 16:11:59;;;;;;;;;;;;;;;11.84;72.96;103644.31;5092154;27;27244;-79
2021/12/16 16:14:27;;;;;;;;;;;;;;;11.82;72.66;103651.19;5091924;28;26989;-78
2021/12/16 16:16:56;;;;;;;;;;;;;;;11.82;72.78;103651.19;5093931;28;26907;-78
2021/12/16 16:19:30;;;;;;;;;;;;;;;11.78;72.89;103651.97;5096460;27;27177;-80
2021/12/16 16:21:56;;;;;;;;;;;;;;;11.78;72.89;103651.97;5098147;27;27043;-78
2021/12/16 16:24:30;;;;;;;;;;;;;;;11.78;72.44;103651.97;5097709;27;27080;-78
2021/12/16 16:26:56;;;;;;;;;;;;;;;11.76;72.19;103653.69;5095608;27;27164;-82
2021/12/16 16:29:22;;;;;;;;;;;;;;;11.75;72.76;103655.41;5096006;27;26739;-78
2021/12/16 16:31:49;;;;;;;;;;;;;;;11.70;72.66;103659.59;5095806;27;26945;-78
2021/12/16 16:34:16;;;;;;;;;;;;;;;11.69;72.46;103662.16;5096304;27;27090;-81
2021/12/16 16:36:43;;;;;;;;;;;;;;;11.66;73.04;103662.13;5094939;27;26983;-80
2021/12/16 16:39:09;;;;;;;;;;;;;;;11.64;72.79;103670.72;5096479;27;27048;-80
2021/12/16 16:41:45;;;;;;;;;;;;;;;11.60;72.84;103663.75;5095965;27;27069;-79
2021/12/16 16:44:13;;;;;;;;;;;;;;;11.53;73.29;103672.28;5095311;27;26988;-80
2021/12/16 16:46:47;;;;;;;;;;;;;;;11.48;72.25;103663.53;5095357;27;26833;-80
2021/12/16 16:49:24;;;;;;;;;;;;;;;11.45;72.84;103673.84;5095397;27;26831;-80
2021/12/16 16:51:50;;;;;;;;;;;;;;;11.43;72.48;103675.56;5096220;27;26885;-80
2021/12/16 16:54:27;;;;;;;;;;;;;;;11.42;72.35;103673.81;5097266;27;27027;-80
2021/12/16 16:56:54;;;;;;;;;;;;;;;11.45;72.81;103673.84;5096214;28;27045;-79
2021/12/16 16:59:30;;;;;;;;;;;;;;;11.50;72.75;103680.00;5095128;27;28082;-78
2021/12/16 17:01:55;;;;;;;;;;;;;;;11.52;72.68;103682.59;5096991;27;26960;-78
2021/12/16 17:04:20;;;;;;;;;;;;;;;11.52;72.83;103680.00;5097186;27;27074;-77
2021/12/16 17:06:54;;;;;;;;;;;;;;;11.50;73.54;103682.56;5095608;28;27019;-79
2021/12/16 17:09:20;;;;;;;;;;;;;;;11.51;72.25;103679.13;5095465;27;27026;-79
2021/12/16 17:11:47;;;;;;;;;;;;;;;11.54;72.97;103684.38;5094108;28;27124;-79
2021/12/16 17:14:17;;;;;;;;;;;;;;;11.57;72.49;103681.84;5096563;27;27015;-79
2021/12/16 17:19:32;;;;;;;;;;;;;;;11.55;72.55;103686.09;5093659;28;27017;-78
2021/12/16 17:21:58;;;;;;;;;;;;;;;11.54;72.46;103689.56;5094334;27;26985;-80
2021/12/16 17:24:28;;;;;;;;;;;;;;;11.53;72.90;103690.38;5095304;27;27094;-79
2021/12/16 17:27:01;;;;;;;;;;;;;;;11.54;72.70;103686.97;5095906;27;26948;-80
2021/12/16 17:29:28;;;;;;;;;;;;;;;11.57;72.91;103694.78;5095463;27;27036;-80
2021/12/16 17:32:13;;;;;;;;;;;;;;;11.59;73.17;103687.00;5093688;27;27073;-80
2021/12/16 17:34:44;;;;;;;;;;;;;;;11.61;73.34;103685.34;5092073;27;26864;-81
2021/12/16 17:37:12;;;;;;;;;;;;;;;11.64;72.96;103686.25;5093317;27;26972;-81
2021/12/16 17:39:46;;;;;;;;;;;;;;;11.67;73.30;103687.16;5097322;27;27013;-81
2021/12/16 17:42:14;;;;;;;;;;;;;;;11.68;72.68;103686.31;5103168;27;26910;-80
2021/12/16 17:44:41;;;;;;;;;;;;;;;11.68;72.74;103683.72;5098009;27;27775;-81
2021/12/16 17:47:10;;;;;;;;;;;;;;;11.68;72.96;103683.72;5097514;27;26849;-81
2021/12/16 17:49:35;;;;;;;;;;;;;;;11.68;72.93;103686.31;5099232;27;27691;-80
2021/12/16 17:52:01;;;;;;;;;;;;;;;11.69;72.98;103682.88;5102013;27;27032;-79
2021/12/16 17:54:27;;;;;;;;;;;;;;;11.71;72.77;103689.84;5097950;27;27608;-79
2021/12/16 17:56:54;;;;;;;;;;;;;;;11.73;73.13;103695.94;5097217;27;26824;-80
2021/12/16 17:59:19;;;;;;;;;;;;;;;11.77;73.26;103702.03;5097730;27;27159;-81
2021/12/16 18:01:46;;;;;;;;;;;;;;;11.81;72.34;103703.84;5097584;28;26748;-80
2021/12/16 18:04:19;;;;;;;;;;;;;;;11.85;72.70;103705.59;5096906;27;27040;-80
2021/12/16 18:06:47;;;;;;;;;;;;;;;11.88;72.66;103705.69;5096449;27;26848;-80
2021/12/16 18:09:20;;;;;;;;;;;;;;;11.91;72.17;103711.78;5097726;27;27097;-79
2021/12/16 18:11:47;;;;;;;;;;;;;;;11.94;72.08;103710.94;5098665;27;27168;-79
2021/12/16 18:14:16;;;;;;;;;;;;;;;11.95;72.60;103708.41;5096634;27;26946;-80
2021/12/16 18:16:44;;;;;;;;;;;;;;;11.96;72.79;103709.28;5096639;28;27053;-81
2021/12/16 18:19:15;;;;;;;;;;;;;;;11.99;72.29;103709.31;5096883;27;26862;-80
2021/12/16 18:21:44;;;;;;;;;;;;;;;11.98;72.93;103702.38;5097135;27;26882;-80
2021/12/16 18:24:09;;;;;;;;;;;;;;;12.00;72.22;103717.09;5097454;27;27621;-80
2021/12/16 18:26:36;;;;;;;;;;;;;;;12.03;71.98;103708.53;5097755;28;26839;-80
2021/12/16 18:29:04;;;;;;;;;;;;;;;12.05;72.79;103714.56;5097987;27;27735;-79
2021/12/16 18:31:31;;;;;;;;;;;;;;;12.05;72.54;103719.75;5097636;27;26948;-79
2021/12/16 18:34:09;;;;;;;;;;;;;;;12.05;72.51;103719.75;5098292;27;27090;-79
2021/12/16 18:36:35;;;;;;;;;;;;;;;12.09;72.66;103722.44;5097676;27;26719;-79
2021/12/16 18:39:13;;;;;;;;;;;;;;;12.11;71.97;103720.72;5098457;27;26856;-80
2021/12/16 18:41:45;;;;;;;;;;;;;;;12.14;72.22;103725.09;5098068;27;26975;-81
2021/12/16 18:44:17;;;;;;;;;;;;;;;12.15;72.79;103718.19;5097375;27;28128;-81
2021/12/16 18:46:42;;;;;;;;;;;;;;;12.16;71.81;103725.97;5097591;27;26823;-81
2021/12/16 18:49:17;;;;;;;;;;;;;;;12.15;72.58;103726.81;5099347;27;26995;-81
2021/12/16 18:54:30;;;;;;;;;;;;;;;12.15;72.68;103726.81;5098090;28;26914;-79
2021/12/16 18:56:58;;;;;;;;;;;;;;;12.15;72.75;103719.03;5097788;27;26848;-79
2021/12/16 18:59:24;;;;;;;;;;;;;;;12.13;72.64;103728.53;5097863;27;26978;-79
2021/12/16 19:01:51;;;;;;;;;;;;;;;12.12;72.33;103731.97;5097164;27;27034;-79
2021/12/16 19:04:18;;;;;;;;;;;;;;;12.06;72.42;103737.94;5100627;27;26878;-80
2021/12/16 19:06:44;;;;;;;;;;;;;;;12.01;72.59;103739.56;5100627;27;26898;-81
2021/12/16 19:09:12;;;;;;;;;;;;;;;11.96;72.57;103736.00;5096195;27;27546;-81
2021/12/16 19:11:44;;;;;;;;;;;;;;;11.96;73.08;103742.94;5096998;27;27064;-81
2021/12/16 19:14:14;;;;;;;;;;;;;;;11.96;72.50;103736.00;5097491;27;27710;-81
2021/12/16 19:16:39;;;;;;;;;;;;;;;11.97;72.96;103742.06;5098639;27;26806;-81
2021/12/16 19:19:05;;;;;;;;;;;;;;;11.98;72.56;103743.81;5097166;27;26915;-81
2021/12/16 19:21:30;;;;;;;;;;;;;;;12.00;72.07;103744.72;5097510;27;26791;-80
2021/12/16 19:23:56;;;;;;;;;;;;;;;12.01;72.24;103743.88;5096303;27;26796;-80
2021/12/16 19:26:21;;;;;;;;;;;;;;;12.04;73.05;103749.09;5098084;28;26916;-81
2021/12/16 19:28:47;;;;;;;;;;;;;;;12.04;71.98;103747.38;5097273;28;27184;-81
2021/12/16 19:31:14;;;;;;;;;;;;;;;12.04;72.53;103749.09;5097686;27;26727;-80
2021/12/16 19:33:41;;;;;;;;;;;;;;;12.03;71.60;103757.75;5096801;27;26825;-79
2021/12/16 19:36:07;;;;;;;;;;;;;;;12.03;71.73;103757.75;5096036;27;26883;-79
2021/12/16 19:38:33;;;;;;;;;;;;;;;12.01;71.96;103759.41;5097467;27;26871;-79
2021/12/16 19:41:00;;;;;;;;;;;;;;;11.98;72.02;103759.38;5097117;27;26976;-79
2021/12/16 19:43:25;;;;;;;;;;;;;;;11.95;71.67;103764.50;5097072;27;26868;-79
2021/12/16 19:45:51;;;;;;;;;;;;;;;11.92;72.37;103761.88;5095314;28;37504;-79
2021/12/16 19:48:17;;;;;;;;;;;;;;;11.90;72.34;103766.13;5096590;27;26916;-79
2021/12/16 19:50:46;;;;;;;;;;;;;;;11.88;72.13;103757.47;5096355;27;26902;-79
2021/12/16 19:53:12;;;;;;;;;;;;;;;11.86;72.12;103765.22;5096135;27;26880;-79
2021/12/16 19:55:37;;;;;;;;;;;;;;;11.84;72.57;103756.56;5095825;28;26916;-79
2021/12/16 19:58:05;;;;;;;;;;;;;;;11.84;72.81;103766.03;5098441;28;26991;-79
2021/12/16 20:00:34;;;;;;;;;;;;;;;11.83;72.42;103761.69;5098564;28;26744;-79
2021/12/16 20:02:59;;;;;;;;;;;;;;;11.83;72.35;103764.28;5097100;27;27039;-80
2021/12/16 20:05:24;;;;;;;;;;;;;;;11.83;72.28;103764.28;5096384;28;26838;-81
2021/12/16 20:07:50;;;;;;;;;;;;;;;11.83;72.27;103765.16;5096277;28;26949;-80
2021/12/16 20:10:19;;;;;;;;;;;;;;;11.83;73.22;103766.88;5096202;27;26836;-80
2021/12/16 20:12:44;;;;;;;;;;;;;;;11.84;72.38;103766.03;5096335;27;28354;-80
2021/12/16 20:15:11;;;;;;;;;;;;;;;11.82;72.27;103768.59;5097186;27;26790;-80
2021/12/16 20:17:37;;;;;;;;;;;;;;;11.81;72.26;103766.00;5096479;27;27216;-79
2021/12/16 20:20:16;;;;;;;;;;;;;;;11.80;72.00;103764.25;5098353;27;26904;-80
2021/12/16 20:22:42;;;;;;;;;;;;;;;11.80;72.32;103759.06;5099841;27;27015;-81
2021/12/16 20:25:13;;;;;;;;;;;;;;;11.77;73.16;103761.59;5100194;27;26921;-81
2021/12/16 20:27:42;;;;;;;;;;;;;;;11.77;72.88;103759.00;5100520;28;26910;-79
2021/12/16 20:30:07;;;;;;;;;;;;;;;11.78;72.92;103765.91;5099677;27;26588;-79
2021/12/16 20:32:37;;;;;;;;;;;;;;;11.76;72.88;103765.03;5100799;27;26986;-79
2021/12/16 20:35:08;;;;;;;;;;;;;;;11.76;72.59;103772.81;5101797;27;26776;-79
2021/12/16 20:37:34;;;;;;;;;;;;;;;11.76;72.74;103767.63;5100135;27;27234;-79
2021/12/16 20:40:03;;;;;;;;;;;;;;;11.77;72.66;103774.56;5098144;27;26872;-80
2021/12/16 20:42:34;;;;;;;;;;;;;;;11.75;72.18;103777.09;5098385;27;26794;-79
2021/12/16 20:45:10;;;;;;;;;;;;;;;11.75;72.66;103776.22;5098317;27;26843;-80
2021/12/16 20:47:35;;;;;;;;;;;;;;;11.75;73.14;103781.41;5098817;27;26843;-81
2021/12/16 20:50:02;;;;;;;;;;;;;;;11.75;73.64;103776.22;5099620;28;27061;-81
2021/12/16 20:52:31;;;;;;;;;;;;;;;11.75;72.45;103771.91;5100700;27;27577;-81
2021/12/16 20:54:59;;;;;;;;;;;;;;;11.76;73.29;103773.69;5102215;27;27137;-81
2021/12/16 20:57:25;;;;;;;;;;;;;;;11.77;73.37;103779.72;5100222;27;27892;-81
2021/12/16 20:59:52;;;;;;;;;;;;;;;11.76;73.25;103789.22;5100447;27;26754;-81
2021/12/16 21:02:19;;;;;;;;;;;;;;;11.76;73.18;103783.16;5102912;27;26788;-79
2021/12/16 21:04:45;;;;;;;;;;;;;;;11.80;72.60;103779.78;5099392;27;26787;-80
2021/12/16 21:07:11;;;;;;;;;;;;;;;11.80;73.42;103779.78;5100400;27;26924;-79
2021/12/16 21:09:39;;;;;;;;;;;;;;;11.82;73.50;103778.06;5100620;27;26922;-80
2021/12/16 21:12:05;;;;;;;;;;;;;;;11.83;72.35;103779.81;5100608;27;27246;-80
2021/12/16 21:14:30;;;;;;;;;;;;;;;11.83;73.02;103775.53;5099472;27;26687;-79
2021/12/16 21:16:56;;;;;;;;;;;;;;;11.81;72.58;103776.34;5099040;28;36485;-79
2021/12/16 21:19:21;;;;;;;;;;;;;;;11.75;72.64;103776.22;5100308;27;26902;-78
2021/12/16 21:21:46;;;;;;;;;;;;;;;11.68;72.72;103784.69;5099151;28;46321;-79
2021/12/16 21:24:12;;;;;;;;;;;;;;;11.63;73.08;103782.00;5099584;27;26963;-79
2021/12/16 21:26:38;;;;;;;;;;;;;;;11.61;73.74;103779.41;5099289;27;28699;-78
2021/12/16 21:29:04;;;;;;;;;;;;;;;11.60;72.35;103780.25;5098866;27;26918;-80
2021/12/16 21:31:29;;;;;;;;;;;;;;;11.59;72.93;103791.44;5099039;27;27536;-80
2021/12/16 21:33:59;;;;;;;;;;;;;;;11.59;73.22;103785.38;5098692;28;26856;-80
2021/12/16 21:36:26;;;;;;;;;;;;;;;11.58;73.35;103783.66;5097320;28;28030;-80
2021/12/16 21:38:53;;;;;;;;;;;;;;;11.57;73.35;103787.97;5098085;27;26918;-81
2021/12/16 21:41:19;;;;;;;;;;;;;;;11.54;73.29;103782.75;5097759;27;28057;-80
2021/12/16 21:43:44;;;;;;;;;;;;;;;11.54;72.92;103792.22;5098658;27;26920;-80
2021/12/16 21:46:10;;;;;;;;;;;;;;;11.52;73.09;103789.59;5097465;27;27151;-80
2021/12/16 21:48:36;;;;;;;;;;;;;;;11.53;72.93;103786.16;5098571;28;26852;-81
2021/12/16 21:51:01;;;;;;;;;;;;;;;11.54;73.06;103785.31;5098190;27;27771;-80
2021/12/16 21:53:26;;;;;;;;;;;;;;;11.54;73.12;103782.75;5098213;27;26875;-81
2021/12/16 21:55:52;;;;;;;;;;;;;;;11.44;73.15;103761.81;5097265;28;27767;-80
2021/12/16 21:58:21;;;;;;;;;;;;;;;11.53;73.16;103773.22;5097272;27;26827;-79
2021/12/16 22:00:47;;;;;;;;;;;;;;;11.54;73.96;103777.56;5097293;27;27040;-79
2021/12/16 22:03:14;;;;;;;;;;;;;;;11.56;73.04;103773.28;5097408;28;26903;-78
2021/12/16 22:05:40;;;;;;;;;;;;;;;11.57;73.82;103769.84;5097397;27;28401;-79
2021/12/16 22:08:06;;;;;;;;;;;;;;;11.57;72.76;103767.25;5098265;28;26839;-80
2021/12/16 22:10:33;;;;;;;;;;;;;;;11.57;73.56;103772.44;5098894;28;27021;-80
2021/12/16 22:12:58;;;;;;;;;;;;;;;11.56;73.31;103767.22;5097120;27;26667;-79
2021/12/16 22:15:26;;;;;;;;;;;;;;;11.54;72.48;103762.03;5097920;28;26999;-79
2021/12/16 22:17:51;;;;;;;;;;;;;;;11.53;73.26;103760.28;5097703;28;26563;-79
2021/12/16 22:20:18;;;;;;;;;;;;;;;11.51;73.54;103756.78;5089518;28;26840;-80
2021/12/16 22:22:43;;;;;;;;;;;;;;;11.48;73.41;103756.72;5097995;28;26871;-78
2021/12/16 22:25:09;;;;;;;;;;;;;;;11.47;73.19;103765.31;5098153;28;26802;-78
2021/12/16 22:27:34;;;;;;;;;;;;;;;11.47;73.29;103770.50;5097324;28;26860;-78
2021/12/16 22:30:00;;;;;;;;;;;;;;;11.47;73.56;103765.31;5098452;28;26807;-78
2021/12/16 22:32:25;;;;;;;;;;;;;;;11.47;73.02;103765.31;5098463;28;26863;-80
2021/12/16 22:34:51;;;;;;;;;;;;;;;11.44;73.49;103754.91;5097712;28;27086;-80
2021/12/16 22:37:16;;;;;;;;;;;;;;;11.43;73.20;103760.97;5097460;28;27046;-79
2021/12/16 22:39:43;;;;;;;;;;;;;;;11.42;73.37;103772.16;5098038;28;26903;-78
2021/12/16 22:42:09;;;;;;;;;;;;;;;11.41;73.70;103770.41;5096921;27;26967;-80
2021/12/16 22:44:35;;;;;;;;;;;;;;;11.42;73.81;103772.16;5098727;28;26829;-80
2021/12/16 22:47:00;;;;;;;;;;;;;;;11.44;73.90;103778.22;5098141;28;26984;-79
2021/12/16 22:49:25;;;;;;;;;;;;;;;11.45;73.80;103772.19;5097555;28;26876;-79
2021/12/16 22:51:51;;;;;;;;;;;;;;;11.45;72.90;103772.19;5097326;28;26976;-81
2021/12/16 22:54:16;;;;;;;;;;;;;;;11.46;73.24;103773.94;5097579;28;28001;-79
2021/12/16 22:56:43;;;;;;;;;;;;;;;11.46;73.39;103768.78;5097897;28;27115;-80
2021/12/16 22:59:10;;;;;;;;;;;;;;;11.47;73.38;103765.31;5078374;28;28222;-80
2021/12/16 23:01:36;;;;;;;;;;;;;;;11.48;73.03;103756.72;5096353;28;26741;-80
2021/12/16 23:04:01;;;;;;;;;;;;;;;11.49;73.36;103768.81;5100115;28;26908;-80
2021/12/16 23:06:26;;;;;;;;;;;;;;;11.50;73.35;103760.22;5098621;28;27053;-80
2021/12/16 23:08:52;;;;;;;;;;;;;;;11.50;72.81;103761.94;5102753;28;26794;-80
2021/12/16 23:11:20;;;;;;;;;;;;;;;11.48;73.50;103767.06;5103157;28;26551;-80
2021/12/16 23:13:48;;;;;;;;;;;;;;;11.44;72.49;103765.28;5100133;28;27156;-80
2021/12/16 23:16:19;;;;;;;;;;;;;;;11.43;73.14;103763.53;5097683;28;26806;-80
2021/12/16 23:23:51;;;;;;;;;;;;;;;11.41;73.00;103765.22;5094325;28;27833;-78
2021/12/16 23:26:16;;;;;;;;;;;;;;;11.44;74.15;103765.28;5097265;28;26818;-78
2021/12/16 23:28:43;;;;;;;;;;;;;;;11.44;73.15;103760.09;5096317;28;26868;-79
2021/12/16 23:31:09;;;;;;;;;;;;;;;11.44;73.24;103762.69;5096513;28;27113;-80
2021/12/16 23:33:34;;;;;;;;;;;;;;;11.47;73.40;103769.66;5097194;28;26903;-78
2021/12/16 23:36:00;;;;;;;;;;;;;;;11.45;73.17;103760.97;5097174;28;26836;-78
2021/12/16 23:38:50;;;;;;;;;;;;;;;11.42;74.03;103769.56;5097359;28;26881;-78
2021/12/16 23:44:54;;;;;;;;;;;;;;;11.41;73.92;103772.97;5093583;28;26791;-78
2021/12/16 23:54:43;;;;;;;;;;;;;;;11.36;73.91;103781.50;5098749;27;26790;-79
2021/12/16 23:57:09;;;;;;;;;;;;;;;11.34;73.69;103778.88;5100657;28;27088;-80
2021/12/16 23:59:36;;;;;;;;;;;;;;;11.33;73.68;103776.25;5101191;28;26798;-80
